Omega, Oklahoma
Current Conditions -  °F | °C
As of 10:55 AM on Friday 24 Oct 2014 (Local Time) from KJWG Reporting Station
Clear Clear  
Wind Chill: 69°   Ceiling: Unl
Heat Index: 69°   Visibility: 10mi
Dew Point: 64°   Wind: 6mph
Humidity: 83%   Direction: 190°S
Pressure: 30.11"   Gusts: NA
Location:  35.87°N, 98.2°W
Report Text: KJWG 241555Z AUTO 19005KT 10SM CLR 21/18 A3011 RMK AO2 T02050175
Loading
Personal Weather Stations






























Interactive Weather Map
Tropical Storm Tracking
New forecast layout! Learn more

10-Day Weather Forecast

Advertisements
Track Severe Weather on mobile